sensor_id;sensor_type;location;lat;lon;timestamp;temperature;humidity
7325;DHT22;3703;48.016;7.802;2023-05-18T00:00:46;10.80;1.00
7325;DHT22;3703;48.016;7.802;2023-05-18T00:03:13;10.90;1.00
7325;DHT22;3703;48.016;7.802;2023-05-18T00:05:41;10.50;1.00
7325;DHT22;3703;48.016;7.802;2023-05-18T00:08:08;11.20;1.00
7325;DHT22;3703;48.016;7.802;2023-05-18T00:10:35;10.80;1.00
7325;DHT22;3703;48.016;7.802;2023-05-18T00:13:04;10.70;1.00
7325;DHT22;3703;48.016;7.802;2023-05-18T00:20:28;10.60;1.00
7325;DHT22;3703;48.016;7.802;2023-05-18T00:22:56;10.60;1.00
7325;DHT22;3703;48.016;7.802;2023-05-18T00:27:52;10.60;1.00
7325;DHT22;3703;48.016;7.802;2023-05-18T00:30:21;10.60;1.00
7325;DHT22;3703;48.016;7.802;2023-05-18T00:40:11;10.50;1.00
7325;DHT22;3703;48.016;7.802;2023-05-18T00:42:39;10.40;1.00
7325;DHT22;3703;48.016;7.802;2023-05-18T00:45:07;10.20;1.00
7325;DHT22;3703;48.016;7.802;2023-05-18T00:47:36;10.20;1.00
7325;DHT22;3703;48.016;7.802;2023-05-18T00:50:04;10.40;1.00
7325;DHT22;3703;48.016;7.802;2023-05-18T00:52:31;10.30;1.00
7325;DHT22;3703;48.016;7.802;2023-05-18T00:54:59;10.00;1.00
7325;DHT22;3703;48.016;7.802;2023-05-18T00:57:27;10.20;1.00
7325;DHT22;3703;48.016;7.802;2023-05-18T00:59:54;10.20;1.00
7325;DHT22;3703;48.016;7.802;2023-05-18T01:02:22;10.50;1.00
7325;DHT22;3703;48.016;7.802;2023-05-18T01:04:51;10.20;1.00
7325;DHT22;3703;48.016;7.802;2023-05-18T01:09:51;10.20;1.00
7325;DHT22;3703;48.016;7.802;2023-05-18T01:12:25;10.00;1.00
7325;DHT22;3703;48.016;7.802;2023-05-18T01:15:02;10.00;1.00
7325;DHT22;3703;48.016;7.802;2023-05-18T01:17:38;10.00;1.00
7325;DHT22;3703;48.016;7.802;2023-05-18T01:20:23;10.00;1.00
7325;DHT22;3703;48.016;7.802;2023-05-18T01:23:10;10.00;1.00
7325;DHT22;3703;48.016;7.802;2023-05-18T01:25:46;10.10;1.00
7325;DHT22;3703;48.016;7.802;2023-05-18T01:28:20;10.10;1.00
7325;DHT22;3703;48.016;7.802;2023-05-18T01:30:52;10.10;1.00
7325;DHT22;3703;48.016;7.802;2023-05-18T01:38:18;10.00;1.00
7325;DHT22;3703;48.016;7.802;2023-05-18T01:40:52;10.10;1.00
7325;DHT22;3703;48.016;7.802;2023-05-18T01:43:28;10.30;1.00
7325;DHT22;3703;48.016;7.802;2023-05-18T01:46:06;10.00;1.00
7325;DHT22;3703;48.016;7.802;2023-05-18T01:48:37;9.90;1.00
7325;DHT22;3703;48.016;7.802;2023-05-18T01:51:05;9.90;1.00
7325;DHT22;3703;48.016;7.802;2023-05-18T01:53:40;9.90;1.00
7325;DHT22;3703;48.016;7.802;2023-05-18T01:56:11;9.80;1.00
7325;DHT22;3703;48.016;7.802;2023-05-18T01:58:41;9.80;1.00
7325;DHT22;3703;48.016;7.802;2023-05-18T02:06:04;9.40;1.00
7325;DHT22;3703;48.016;7.802;2023-05-18T02:15:55;9.70;1.00
7325;DHT22;3703;48.016;7.802;2023-05-18T02:20:57;9.60;1.00
7325;DHT22;3703;48.016;7.802;2023-05-18T02:33:17;9.50;1.00
7325;DHT22;3703;48.016;7.802;2023-05-18T02:35:51;9.50;1.00
7325;DHT22;3703;48.016;7.802;2023-05-18T02:50:38;9.30;1.00
7325;DHT22;3703;48.016;7.802;2023-05-18T03:07:54;9.30;1.00
7325;DHT22;3703;48.016;7.802;2023-05-18T03:25:09;9.10;1.00
7325;DHT22;3703;48.016;7.802;2023-05-18T03:30:05;8.90;1.00
7325;DHT22;3703;48.016;7.802;2023-05-18T03:39:58;8.90;1.00
7325;DHT22;3703;48.016;7.802;2023-05-18T03:42:32;8.80;1.00
7325;DHT22;3703;48.016;7.802;2023-05-18T03:59:47;8.90;1.00
7325;DHT22;3703;48.016;7.802;2023-05-18T04:07:11;8.70;1.00
7325;DHT22;3703;48.016;7.802;2023-05-18T04:09:38;8.80;1.00
7325;DHT22;3703;48.016;7.802;2023-05-18T04:12:06;8.70;1.00
7325;DHT22;3703;48.016;7.802;2023-05-18T04:17:02;8.80;1.00
7325;DHT22;3703;48.016;7.802;2023-05-18T04:34:26;8.80;1.00
7325;DHT22;3703;48.016;7.802;2023-05-18T04:39:23;8.80;1.00
7325;DHT22;3703;48.016;7.802;2023-05-18T04:41:52;8.70;1.00
7325;DHT22;3703;48.016;7.802;2023-05-18T04:51:49;9.10;1.00
7325;DHT22;3703;48.016;7.802;2023-05-18T04:54:21;9.10;1.00
7325;DHT22;3703;48.016;7.802;2023-05-18T05:01:44;9.40;1.00
7325;DHT22;3703;48.016;7.802;2023-05-18T05:04:12;9.40;1.00
7325;DHT22;3703;48.016;7.802;2023-05-18T05:09:08;9.50;1.00
7325;DHT22;3703;48.016;7.802;2023-05-18T05:26:27;9.70;1.00
7325;DHT22;3703;48.016;7.802;2023-05-18T05:43:41;10.00;1.00
7325;DHT22;3703;48.016;7.802;2023-05-18T06:00:55;10.40;1.00
7325;DHT22;3703;48.016;7.802;2023-05-18T06:10:45;9.90;1.00
7325;DHT22;3703;48.016;7.802;2023-05-18T06:13:12;10.30;1.00
7325;DHT22;3703;48.016;7.802;2023-05-18T06:15:40;10.20;1.00
7325;DHT22;3703;48.016;7.802;2023-05-18T06:18:09;10.30;1.00
7325;DHT22;3703;48.016;7.802;2023-05-18T06:30:27;10.80;1.00
7325;DHT22;3703;48.016;7.802;2023-05-18T06:35:23;12.00;1.00
7325;DHT22;3703;48.016;7.802;2023-05-18T06:47:41;11.30;1.00
7325;DHT22;3703;48.016;7.802;2023-05-18T06:50:09;11.80;1.00
7325;DHT22;3703;48.016;7.802;2023-05-18T06:52:38;11.60;1.00
7325;DHT22;3703;48.016;7.802;2023-05-18T06:55:05;11.40;1.00
7325;DHT22;3703;48.016;7.802;2023-05-18T06:57:33;11.40;1.00
7325;DHT22;3703;48.016;7.802;2023-05-18T07:00:01;11.60;1.00
7325;DHT22;3703;48.016;7.802;2023-05-18T07:02:31;11.60;1.00
7325;DHT22;3703;48.016;7.802;2023-05-18T07:04:59;11.70;1.00
7325;DHT22;3703;48.016;7.802;2023-05-18T07:07:30;11.80;1.00
7325;DHT22;3703;48.016;7.802;2023-05-18T07:09:58;11.80;1.00
7325;DHT22;3703;48.016;7.802;2023-05-18T07:12:25;11.80;1.00
7325;DHT22;3703;48.016;7.802;2023-05-18T07:14:53;12.00;1.00
7325;DHT22;3703;48.016;7.802;2023-05-18T07:17:20;12.10;1.00
7325;DHT22;3703;48.016;7.802;2023-05-18T07:19:48;12.10;1.00
7325;DHT22;3703;48.016;7.802;2023-05-18T07:22:15;12.10;1.00
7325;DHT22;3703;48.016;7.802;2023-05-18T07:24:42;12.30;1.00
7325;DHT22;3703;48.016;7.802;2023-05-18T07:27:10;12.40;1.00
7325;DHT22;3703;48.016;7.802;2023-05-18T07:29:38;12.50;1.00
7325;DHT22;3703;48.016;7.802;2023-05-18T07:32:05;12.70;1.00
7325;DHT22;3703;48.016;7.802;2023-05-18T07:34:32;12.90;1.00
7325;DHT22;3703;48.016;7.802;2023-05-18T07:37:00;12.90;1.00
7325;DHT22;3703;48.016;7.802;2023-05-18T07:39:27;12.80;1.00
7325;DHT22;3703;48.016;7.802;2023-05-18T07:41:54;12.80;1.00
7325;DHT22;3703;48.016;7.802;2023-05-18T07:44:23;12.80;1.00
7325;DHT22;3703;48.016;7.802;2023-05-18T07:46:50;13.00;1.00
7325;DHT22;3703;48.016;7.802;2023-05-18T07:49:18;12.90;1.00
7325;DHT22;3703;48.016;7.802;2023-05-18T07:51:47;13.20;1.00
7325;DHT22;3703;48.016;7.802;2023-05-18T07:54:14;13.20;1.00
7325;DHT22;3703;48.016;7.802;2023-05-18T07:56:42;13.10;1.00
7325;DHT22;3703;48.016;7.802;2023-05-18T07:59:09;13.30;1.00
7325;DHT22;3703;48.016;7.802;2023-05-18T08:01:38;13.40;1.00
7325;DHT22;3703;48.016;7.802;2023-05-18T08:04:06;13.60;1.00
7325;DHT22;3703;48.016;7.802;2023-05-18T08:06:33;13.60;1.00
7325;DHT22;3703;48.016;7.802;2023-05-18T08:09:00;13.60;1.00
7325;DHT22;3703;48.016;7.802;2023-05-18T08:11:28;13.60;99.90
7325;DHT22;3703;48.016;7.802;2023-05-18T08:13:55;13.60;99.90
7325;DHT22;3703;48.016;7.802;2023-05-18T08:16:22;13.60;1.00
7325;DHT22;3703;48.016;7.802;2023-05-18T08:18:51;13.60;1.00
7325;DHT22;3703;48.016;7.802;2023-05-18T08:21:18;13.90;1.00
7325;DHT22;3703;48.016;7.802;2023-05-18T08:23:45;14.10;1.00
7325;DHT22;3703;48.016;7.802;2023-05-18T08:26:13;14.30;99.90
7325;DHT22;3703;48.016;7.802;2023-05-18T08:28:40;14.60;99.90
7325;DHT22;3703;48.016;7.802;2023-05-18T08:31:07;14.60;99.90
7325;DHT22;3703;48.016;7.802;2023-05-18T08:33:34;14.60;1.00
7325;DHT22;3703;48.016;7.802;2023-05-18T08:36:03;14.70;99.90
7325;DHT22;3703;48.016;7.802;2023-05-18T08:38:30;13.60;79.10
7325;DHT22;3703;48.016;7.802;2023-05-18T08:41:03;15.10;1.00
7325;DHT22;3703;48.016;7.802;2023-05-18T08:43:35;15.30;1.00
7325;DHT22;3703;48.016;7.802;2023-05-18T08:46:09;15.40;73.50
7325;DHT22;3703;48.016;7.802;2023-05-18T08:48:44;15.60;1.00
7325;DHT22;3703;48.016;7.802;2023-05-18T08:51:18;16.30;99.90
7325;DHT22;3703;48.016;7.802;2023-05-18T08:53:51;15.60;1.00
7325;DHT22;3703;48.016;7.802;2023-05-18T08:56:22;15.70;99.90
7325;DHT22;3703;48.016;7.802;2023-05-18T08:58:54;16.00;1.00
7325;DHT22;3703;48.016;7.802;2023-05-18T09:01:23;16.10;1.00
7325;DHT22;3703;48.016;7.802;2023-05-18T09:03:53;16.20;99.90
7325;DHT22;3703;48.016;7.802;2023-05-18T09:06:23;16.50;99.90
7325;DHT22;3703;48.016;7.802;2023-05-18T09:08:51;16.60;99.90
7325;DHT22;3703;48.016;7.802;2023-05-18T09:11:21;16.60;1.00
7325;DHT22;3703;48.016;7.802;2023-05-18T09:13:49;16.70;39.50
7325;DHT22;3703;48.016;7.802;2023-05-18T09:16:16;16.80;1.00
7325;DHT22;3703;48.016;7.802;2023-05-18T09:18:44;17.00;1.00
7325;DHT22;3703;48.016;7.802;2023-05-18T09:21:11;17.10;1.00
7325;DHT22;3703;48.016;7.802;2023-05-18T09:23:40;17.10;99.90
7325;DHT22;3703;48.016;7.802;2023-05-18T09:26:08;17.20;99.90
7325;DHT22;3703;48.016;7.802;2023-05-18T09:28:37;17.40;99.90
7325;DHT22;3703;48.016;7.802;2023-05-18T09:31:07;17.60;1.00
7325;DHT22;3703;48.016;7.802;2023-05-18T09:33:38;17.60;99.90
7325;DHT22;3703;48.016;7.802;2023-05-18T09:36:07;17.40;1.00
7325;DHT22;3703;48.016;7.802;2023-05-18T09:38:36;17.30;1.00
7325;DHT22;3703;48.016;7.802;2023-05-18T09:41:08;17.30;1.00
7325;DHT22;3703;48.016;7.802;2023-05-18T09:43:37;17.60;1.00
7325;DHT22;3703;48.016;7.802;2023-05-18T09:46:05;17.80;1.00
7325;DHT22;3703;48.016;7.802;2023-05-18T09:48:34;18.00;1.00
7325;DHT22;3703;48.016;7.802;2023-05-18T09:51:04;18.30;99.90
7325;DHT22;3703;48.016;7.802;2023-05-18T09:53:34;18.30;99.90
7325;DHT22;3703;48.016;7.802;2023-05-18T09:56:05;18.50;99.90
7325;DHT22;3703;48.016;7.802;2023-05-18T09:58:36;18.40;99.90
7325;DHT22;3703;48.016;7.802;2023-05-18T10:01:04;18.50;99.90
7325;DHT22;3703;48.016;7.802;2023-05-18T10:03:33;18.40;99.90
7325;DHT22;3703;48.016;7.802;2023-05-18T10:06:04;18.40;1.00
7325;DHT22;3703;48.016;7.802;2023-05-18T10:08:32;18.60;1.00
7325;DHT22;3703;48.016;7.802;2023-05-18T10:11:00;18.50;99.90
7325;DHT22;3703;48.016;7.802;2023-05-18T10:13:30;18.80;15.90
7325;DHT22;3703;48.016;7.802;2023-05-18T10:15:59;18.60;1.00
7325;DHT22;3703;48.016;7.802;2023-05-18T10:18:28;18.90;86.30
7325;DHT22;3703;48.016;7.802;2023-05-18T10:20:58;19.00;45.00
7325;DHT22;3703;48.016;7.802;2023-05-18T10:23:30;18.70;1.00
7325;DHT22;3703;48.016;7.802;2023-05-18T10:25:58;18.70;1.00
7325;DHT22;3703;48.016;7.802;2023-05-18T10:28:29;18.40;1.00
7325;DHT22;3703;48.016;7.802;2023-05-18T10:30:58;18.40;1.00
7325;DHT22;3703;48.016;7.802;2023-05-18T10:33:26;18.50;1.00
7325;DHT22;3703;48.016;7.802;2023-05-18T10:35:54;18.60;1.00
7325;DHT22;3703;48.016;7.802;2023-05-18T10:38:23;18.60;1.00
7325;DHT22;3703;48.016;7.802;2023-05-18T10:40:54;18.60;1.00
7325;DHT22;3703;48.016;7.802;2023-05-18T10:43:23;18.80;1.00
7325;DHT22;3703;48.016;7.802;2023-05-18T10:45:55;18.60;1.00
7325;DHT22;3703;48.016;7.802;2023-05-18T10:48:24;18.70;1.00
7325;DHT22;3703;48.016;7.802;2023-05-18T10:50:53;18.90;1.00
7325;DHT22;3703;48.016;7.802;2023-05-18T10:53:23;18.90;1.00
7325;DHT22;3703;48.016;7.802;2023-05-18T10:55:52;18.80;1.00
7325;DHT22;3703;48.016;7.802;2023-05-18T10:58:21;18.90;1.00
7325;DHT22;3703;48.016;7.802;2023-05-18T11:00:53;19.10;1.00
7325;DHT22;3703;48.016;7.802;2023-05-18T11:03:23;19.50;1.00
7325;DHT22;3703;48.016;7.802;2023-05-18T11:06:02;19.60;1.00
7325;DHT22;3703;48.016;7.802;2023-05-18T11:08:33;19.40;1.00
7325;DHT22;3703;48.016;7.802;2023-05-18T11:11:08;19.40;1.00
7325;DHT22;3703;48.016;7.802;2023-05-18T11:13:37;19.70;1.00
7325;DHT22;3703;48.016;7.802;2023-05-18T11:16:11;19.50;1.00
7325;DHT22;3703;48.016;7.802;2023-05-18T11:18:41;19.50;1.00
7325;DHT22;3703;48.016;7.802;2023-05-18T11:21:30;19.70;1.00
7325;DHT22;3703;48.016;7.802;2023-05-18T11:24:23;20.00;1.00
7325;DHT22;3703;48.016;7.802;2023-05-18T11:26:53;20.20;1.00
7325;DHT22;3703;48.016;7.802;2023-05-18T11:29:22;20.10;1.00
7325;DHT22;3703;48.016;7.802;2023-05-18T11:31:53;20.30;1.00
7325;DHT22;3703;48.016;7.802;2023-05-18T11:34:34;20.10;99.90
7325;DHT22;3703;48.016;7.802;2023-05-18T11:37:10;20.00;99.90
7325;DHT22;3703;48.016;7.802;2023-05-18T11:39:38;19.80;99.90
7325;DHT22;3703;48.016;7.802;2023-05-18T11:42:07;19.50;99.90
7325;DHT22;3703;48.016;7.802;2023-05-18T11:44:35;19.40;99.90
7325;DHT22;3703;48.016;7.802;2023-05-18T11:47:08;19.50;99.90
7325;DHT22;3703;48.016;7.802;2023-05-18T11:49:41;19.60;99.90
7325;DHT22;3703;48.016;7.802;2023-05-18T11:52:14;19.60;99.90
7325;DHT22;3703;48.016;7.802;2023-05-18T11:54:44;19.80;99.90
7325;DHT22;3703;48.016;7.802;2023-05-18T11:57:13;19.90;99.90
7325;DHT22;3703;48.016;7.802;2023-05-18T11:59:43;19.80;99.90
7325;DHT22;3703;48.016;7.802;2023-05-18T12:02:18;19.50;99.90
7325;DHT22;3703;48.016;7.802;2023-05-18T12:04:48;19.40;99.90
7325;DHT22;3703;48.016;7.802;2023-05-18T12:07:18;19.30;99.90
7325;DHT22;3703;48.016;7.802;2023-05-18T12:09:46;19.30;99.90
7325;DHT22;3703;48.016;7.802;2023-05-18T12:12:15;19.40;99.90
7325;DHT22;3703;48.016;7.802;2023-05-18T12:14:46;19.50;99.90
7325;DHT22;3703;48.016;7.802;2023-05-18T12:17:20;19.40;99.90
7325;DHT22;3703;48.016;7.802;2023-05-18T12:19:49;19.50;99.90
7325;DHT22;3703;48.016;7.802;2023-05-18T12:22:16;19.40;99.90
7325;DHT22;3703;48.016;7.802;2023-05-18T12:24:43;19.30;99.90
7325;DHT22;3703;48.016;7.802;2023-05-18T12:27:11;19.30;99.90
7325;DHT22;3703;48.016;7.802;2023-05-18T12:29:39;19.20;99.90
7325;DHT22;3703;48.016;7.802;2023-05-18T12:32:08;19.40;99.90
7325;DHT22;3703;48.016;7.802;2023-05-18T12:34:38;19.40;99.90
7325;DHT22;3703;48.016;7.802;2023-05-18T12:37:06;19.30;99.90
7325;DHT22;3703;48.016;7.802;2023-05-18T12:39:34;19.50;99.90
7325;DHT22;3703;48.016;7.802;2023-05-18T12:42:11;19.70;99.90
7325;DHT22;3703;48.016;7.802;2023-05-18T12:44:41;19.60;99.90
7325;DHT22;3703;48.016;7.802;2023-05-18T12:47:09;19.60;99.90
7325;DHT22;3703;48.016;7.802;2023-05-18T12:49:40;19.70;99.90
7325;DHT22;3703;48.016;7.802;2023-05-18T12:52:09;19.60;99.90
7325;DHT22;3703;48.016;7.802;2023-05-18T12:54:51;19.80;99.90
7325;DHT22;3703;48.016;7.802;2023-05-18T12:57:25;19.60;99.90
7325;DHT22;3703;48.016;7.802;2023-05-18T12:59:52;19.70;99.90
7325;DHT22;3703;48.016;7.802;2023-05-18T13:02:28;19.50;99.90
7325;DHT22;3703;48.016;7.802;2023-05-18T13:05:07;19.50;99.90
7325;DHT22;3703;48.016;7.802;2023-05-18T13:07:37;19.60;99.90
7325;DHT22;3703;48.016;7.802;2023-05-18T13:10:07;20.00;99.90
7325;DHT22;3703;48.016;7.802;2023-05-18T13:12:41;20.10;99.90
7325;DHT22;3703;48.016;7.802;2023-05-18T13:15:10;20.10;99.90
7325;DHT22;3703;48.016;7.802;2023-05-18T13:17:47;20.20;99.90
7325;DHT22;3703;48.016;7.802;2023-05-18T13:20:28;20.10;99.90
7325;DHT22;3703;48.016;7.802;2023-05-18T13:22:57;20.30;99.90
7325;DHT22;3703;48.016;7.802;2023-05-18T13:25:25;19.60;99.90
7325;DHT22;3703;48.016;7.802;2023-05-18T13:27:52;19.30;99.90
7325;DHT22;3703;48.016;7.802;2023-05-18T13:30:21;19.20;99.90
7325;DHT22;3703;48.016;7.802;2023-05-18T13:32:49;19.30;99.90
7325;DHT22;3703;48.016;7.802;2023-05-18T13:35:17;19.20;99.90
7325;DHT22;3703;48.016;7.802;2023-05-18T13:37:46;18.90;99.90
7325;DHT22;3703;48.016;7.802;2023-05-18T13:40:14;18.80;99.90
7325;DHT22;3703;48.016;7.802;2023-05-18T13:42:42;19.00;99.90
7325;DHT22;3703;48.016;7.802;2023-05-18T13:45:11;19.10;99.90
7325;DHT22;3703;48.016;7.802;2023-05-18T13:47:39;19.40;99.90
7325;DHT22;3703;48.016;7.802;2023-05-18T13:50:08;19.40;99.90
7325;DHT22;3703;48.016;7.802;2023-05-18T13:52:36;19.20;99.90
7325;DHT22;3703;48.016;7.802;2023-05-18T13:55:06;19.10;99.90
7325;DHT22;3703;48.016;7.802;2023-05-18T13:57:34;18.90;99.90
7325;DHT22;3703;48.016;7.802;2023-05-18T14:00:02;18.70;99.90
7325;DHT22;3703;48.016;7.802;2023-05-18T14:02:37;18.90;99.90
7325;DHT22;3703;48.016;7.802;2023-05-18T14:05:05;18.80;99.90
7325;DHT22;3703;48.016;7.802;2023-05-18T14:07:34;18.00;99.90
7325;DHT22;3703;48.016;7.802;2023-05-18T14:10:02;18.90;99.90
7325;DHT22;3703;48.016;7.802;2023-05-18T14:12:32;18.80;99.90
7325;DHT22;3703;48.016;7.802;2023-05-18T14:14:59;19.00;99.90
7325;DHT22;3703;48.016;7.802;2023-05-18T14:17:27;18.90;99.90
7325;DHT22;3703;48.016;7.802;2023-05-18T14:19:55;19.00;99.90
7325;DHT22;3703;48.016;7.802;2023-05-18T14:22:23;18.90;99.90
7325;DHT22;3703;48.016;7.802;2023-05-18T14:24:52;19.00;99.90
7325;DHT22;3703;48.016;7.802;2023-05-18T14:27:19;19.10;99.90
7325;DHT22;3703;48.016;7.802;2023-05-18T14:29:49;19.30;99.90
7325;DHT22;3703;48.016;7.802;2023-05-18T14:32:16;19.50;99.90
7325;DHT22;3703;48.016;7.802;2023-05-18T14:34:45;19.70;99.90
7325;DHT22;3703;48.016;7.802;2023-05-18T14:37:12;19.30;99.90
7325;DHT22;3703;48.016;7.802;2023-05-18T14:39:40;19.10;99.90
7325;DHT22;3703;48.016;7.802;2023-05-18T14:42:08;18.80;99.90
7325;DHT22;3703;48.016;7.802;2023-05-18T14:44:35;18.70;99.90
7325;DHT22;3703;48.016;7.802;2023-05-18T14:47:04;18.70;99.90
7325;DHT22;3703;48.016;7.802;2023-05-18T14:49:32;18.80;99.90
7325;DHT22;3703;48.016;7.802;2023-05-18T14:51:59;18.90;99.90
7325;DHT22;3703;48.016;7.802;2023-05-18T14:54:26;19.00;99.90
7325;DHT22;3703;48.016;7.802;2023-05-18T14:56:53;18.90;99.90
7325;DHT22;3703;48.016;7.802;2023-05-18T14:59:21;19.10;99.90
7325;DHT22;3703;48.016;7.802;2023-05-18T15:01:48;19.30;99.90
7325;DHT22;3703;48.016;7.802;2023-05-18T15:04:16;19.00;99.90
7325;DHT22;3703;48.016;7.802;2023-05-18T15:06:46;19.10;99.90
7325;DHT22;3703;48.016;7.802;2023-05-18T15:09:13;19.10;99.90
7325;DHT22;3703;48.016;7.802;2023-05-18T15:11:41;18.90;99.90
7325;DHT22;3703;48.016;7.802;2023-05-18T15:14:08;18.70;99.90
7325;DHT22;3703;48.016;7.802;2023-05-18T15:16:35;18.60;99.90
7325;DHT22;3703;48.016;7.802;2023-05-18T15:19:03;18.60;99.90
7325;DHT22;3703;48.016;7.802;2023-05-18T15:21:31;18.90;99.90
7325;DHT22;3703;48.016;7.802;2023-05-18T15:23:59;19.00;99.90
7325;DHT22;3703;48.016;7.802;2023-05-18T15:26:26;18.80;99.90
7325;DHT22;3703;48.016;7.802;2023-05-18T15:28:53;18.40;99.90
7325;DHT22;3703;48.016;7.802;2023-05-18T15:31:20;18.70;99.90
7325;DHT22;3703;48.016;7.802;2023-05-18T15:33:48;18.30;99.90
7325;DHT22;3703;48.016;7.802;2023-05-18T15:36:15;18.20;99.90
7325;DHT22;3703;48.016;7.802;2023-05-18T15:38:44;18.30;99.90
7325;DHT22;3703;48.016;7.802;2023-05-18T15:41:11;18.60;99.90
7325;DHT22;3703;48.016;7.802;2023-05-18T15:43:38;18.80;99.90
7325;DHT22;3703;48.016;7.802;2023-05-18T15:46:06;18.70;99.90
7325;DHT22;3703;48.016;7.802;2023-05-18T15:48:33;18.50;99.90
7325;DHT22;3703;48.016;7.802;2023-05-18T15:51:00;18.60;99.90
7325;DHT22;3703;48.016;7.802;2023-05-18T15:53:27;18.60;99.90
7325;DHT22;3703;48.016;7.802;2023-05-18T15:55:56;18.60;99.90
7325;DHT22;3703;48.016;7.802;2023-05-18T15:58:23;18.60;99.90
7325;DHT22;3703;48.016;7.802;2023-05-18T16:00:51;18.40;99.90
7325;DHT22;3703;48.016;7.802;2023-05-18T16:03:18;18.70;99.90
7325;DHT22;3703;48.016;7.802;2023-05-18T16:05:45;18.90;99.90
7325;DHT22;3703;48.016;7.802;2023-05-18T16:08:12;18.90;99.90
7325;DHT22;3703;48.016;7.802;2023-05-18T16:10:40;18.90;99.90
7325;DHT22;3703;48.016;7.802;2023-05-18T16:13:08;18.90;99.90
7325;DHT22;3703;48.016;7.802;2023-05-18T16:15:36;18.80;99.90
7325;DHT22;3703;48.016;7.802;2023-05-18T16:18:04;19.00;99.90
7325;DHT22;3703;48.016;7.802;2023-05-18T16:20:31;19.00;99.90
7325;DHT22;3703;48.016;7.802;2023-05-18T16:22:59;19.20;99.90
7325;DHT22;3703;48.016;7.802;2023-05-18T16:25:26;19.30;99.90
7325;DHT22;3703;48.016;7.802;2023-05-18T16:27:53;19.40;99.90
7325;DHT22;3703;48.016;7.802;2023-05-18T16:30:22;19.30;99.90
7325;DHT22;3703;48.016;7.802;2023-05-18T16:32:50;19.10;99.90
7325;DHT22;3703;48.016;7.802;2023-05-18T16:35:17;18.80;99.90
7325;DHT22;3703;48.016;7.802;2023-05-18T16:37:44;18.70;99.90
7325;DHT22;3703;48.016;7.802;2023-05-18T16:40:11;18.70;99.90
7325;DHT22;3703;48.016;7.802;2023-05-18T16:42:39;18.70;1.00
7325;DHT22;3703;48.016;7.802;2023-05-18T16:45:07;18.80;99.90
7325;DHT22;3703;48.016;7.802;2023-05-18T16:47:35;19.00;99.90
7325;DHT22;3703;48.016;7.802;2023-05-18T16:50:05;19.20;99.90
7325;DHT22;3703;48.016;7.802;2023-05-18T16:52:33;19.10;99.90
7325;DHT22;3703;48.016;7.802;2023-05-18T16:55:00;19.20;99.90
7325;DHT22;3703;48.016;7.802;2023-05-18T16:57:27;18.90;99.90
7325;DHT22;3703;48.016;7.802;2023-05-18T16:59:55;18.90;99.90
7325;DHT22;3703;48.016;7.802;2023-05-18T17:02:30;18.80;99.90
7325;DHT22;3703;48.016;7.802;2023-05-18T17:04:58;18.70;99.90
7325;DHT22;3703;48.016;7.802;2023-05-18T17:07:26;18.80;99.90
7325;DHT22;3703;48.016;7.802;2023-05-18T17:09:53;18.80;99.90
7325;DHT22;3703;48.016;7.802;2023-05-18T17:12:20;18.90;99.90
7325;DHT22;3703;48.016;7.802;2023-05-18T17:14:47;18.90;99.90
7325;DHT22;3703;48.016;7.802;2023-05-18T17:17:15;18.90;99.90
7325;DHT22;3703;48.016;7.802;2023-05-18T17:19:42;18.90;99.90
7325;DHT22;3703;48.016;7.802;2023-05-18T17:22:11;18.80;99.90
7325;DHT22;3703;48.016;7.802;2023-05-18T17:24:38;18.80;99.90
7325;DHT22;3703;48.016;7.802;2023-05-18T17:27:06;18.80;99.90
7325;DHT22;3703;48.016;7.802;2023-05-18T17:29:33;18.90;99.90
7325;DHT22;3703;48.016;7.802;2023-05-18T17:32:00;18.90;99.90
7325;DHT22;3703;48.016;7.802;2023-05-18T17:34:28;18.90;99.90
7325;DHT22;3703;48.016;7.802;2023-05-18T17:36:55;18.80;99.90
7325;DHT22;3703;48.016;7.802;2023-05-18T17:39:24;18.80;99.90
7325;DHT22;3703;48.016;7.802;2023-05-18T17:41:51;18.70;99.90
7325;DHT22;3703;48.016;7.802;2023-05-18T17:44:19;18.80;99.90
7325;DHT22;3703;48.016;7.802;2023-05-18T17:46:46;18.80;99.90
7325;DHT22;3703;48.016;7.802;2023-05-18T17:49:14;18.70;99.90
7325;DHT22;3703;48.016;7.802;2023-05-18T17:51:41;18.60;99.90
7325;DHT22;3703;48.016;7.802;2023-05-18T17:54:09;18.60;99.90
7325;DHT22;3703;48.016;7.802;2023-05-18T17:56:38;18.50;99.90
7325;DHT22;3703;48.016;7.802;2023-05-18T17:59:05;18.50;99.90
7325;DHT22;3703;48.016;7.802;2023-05-18T18:01:33;18.40;1.00
7325;DHT22;3703;48.016;7.802;2023-05-18T18:04:01;18.30;1.00
7325;DHT22;3703;48.016;7.802;2023-05-18T18:06:29;18.40;1.00
7325;DHT22;3703;48.016;7.802;2023-05-18T18:09:01;18.40;1.00
7325;DHT22;3703;48.016;7.802;2023-05-18T18:11:29;18.40;1.00
7325;DHT22;3703;48.016;7.802;2023-05-18T18:13:57;18.40;1.00
7325;DHT22;3703;48.016;7.802;2023-05-18T18:16:26;18.40;1.00
7325;DHT22;3703;48.016;7.802;2023-05-18T18:18:54;18.50;1.00
7325;DHT22;3703;48.016;7.802;2023-05-18T18:21:21;18.30;1.00
7325;DHT22;3703;48.016;7.802;2023-05-18T18:23:48;18.30;1.00
7325;DHT22;3703;48.016;7.802;2023-05-18T18:26:16;18.00;1.00
7325;DHT22;3703;48.016;7.802;2023-05-18T18:28:43;18.10;1.00
7325;DHT22;3703;48.016;7.802;2023-05-18T18:31:11;18.20;1.00
7325;DHT22;3703;48.016;7.802;2023-05-18T18:33:39;18.30;1.00
7325;DHT22;3703;48.016;7.802;2023-05-18T18:36:08;18.30;1.00
7325;DHT22;3703;48.016;7.802;2023-05-18T18:38:35;18.40;1.00
7325;DHT22;3703;48.016;7.802;2023-05-18T18:41:03;18.40;1.00
7325;DHT22;3703;48.016;7.802;2023-05-18T18:43:32;18.30;1.00
7325;DHT22;3703;48.016;7.802;2023-05-18T18:46:00;18.20;1.00
7325;DHT22;3703;48.016;7.802;2023-05-18T18:48:29;18.20;1.00
7325;DHT22;3703;48.016;7.802;2023-05-18T18:50:56;18.30;1.00
7325;DHT22;3703;48.016;7.802;2023-05-18T18:53:23;18.30;1.00
7325;DHT22;3703;48.016;7.802;2023-05-18T18:55:50;18.30;1.00
7325;DHT22;3703;48.016;7.802;2023-05-18T18:58:18;18.30;1.00
7325;DHT22;3703;48.016;7.802;2023-05-18T19:00:48;18.30;1.00
7325;DHT22;3703;48.016;7.802;2023-05-18T19:03:15;18.20;1.00
7325;DHT22;3703;48.016;7.802;2023-05-18T19:05:44;18.10;1.00
7325;DHT22;3703;48.016;7.802;2023-05-18T19:08:11;18.20;1.00
7325;DHT22;3703;48.016;7.802;2023-05-18T19:10:40;18.10;1.00
7325;DHT22;3703;48.016;7.802;2023-05-18T19:13:09;18.60;1.00
7325;DHT22;3703;48.016;7.802;2023-05-18T19:15:36;18.10;1.00
7325;DHT22;3703;48.016;7.802;2023-05-18T19:18:04;18.10;8.70
7325;DHT22;3703;48.016;7.802;2023-05-18T19:20:32;18.10;1.00
7325;DHT22;3703;48.016;7.802;2023-05-18T19:23:00;18.10;16.20
7325;DHT22;3703;48.016;7.802;2023-05-18T19:25:29;18.10;33.60
7325;DHT22;3703;48.016;7.802;2023-05-18T19:27:56;18.20;99.90
7325;DHT22;3703;48.016;7.802;2023-05-18T19:30:23;18.10;99.90
7325;DHT22;3703;48.016;7.802;2023-05-18T19:32:51;18.00;92.00
7325;DHT22;3703;48.016;7.802;2023-05-18T19:35:19;17.90;90.80
7325;DHT22;3703;48.016;7.802;2023-05-18T19:37:48;17.80;99.90
7325;DHT22;3703;48.016;7.802;2023-05-18T19:40:17;17.90;97.00
7325;DHT22;3703;48.016;7.802;2023-05-18T19:42:46;17.70;99.90
7325;DHT22;3703;48.016;7.802;2023-05-18T19:45:14;17.80;99.90
7325;DHT22;3703;48.016;7.802;2023-05-18T19:47:42;17.70;99.90
7325;DHT22;3703;48.016;7.802;2023-05-18T19:50:10;17.70;99.90
7325;DHT22;3703;48.016;7.802;2023-05-18T19:52:38;17.60;99.90
7325;DHT22;3703;48.016;7.802;2023-05-18T19:55:06;17.50;99.90
7325;DHT22;3703;48.016;7.802;2023-05-18T19:57:34;17.50;99.90
7325;DHT22;3703;48.016;7.802;2023-05-18T20:00:02;17.50;99.90
7325;DHT22;3703;48.016;7.802;2023-05-18T20:02:31;17.60;99.90
7325;DHT22;3703;48.016;7.802;2023-05-18T20:04:58;17.50;99.90
7325;DHT22;3703;48.016;7.802;2023-05-18T20:07:26;17.60;99.90